Time;durP1;ratioP1;P1;durP2;ratioP2;P2;SDS_P1;SDS_P2;PMS_P1;PMS_P2;Temp;Humidity;BMP_temperature;BMP_pressure;BME280_temperature;BME280_humidity;BME280_pressure;Samples;Min_cycle;Max_cycle;Signal;HPM_P1;HPM_P2
2022/04/29 00:01:03;;;;;;;9.67;7.87;;;;;;;;;;5011767;28;20215;-63
2022/04/29 00:03:31;;;;;;;8.20;7.40;;;;;;;;;;5005855;28;20222;-64
2022/04/29 00:05:58;;;;;;;9.10;8.20;;;;;;;;;;5016919;28;20222;-64
2022/04/29 00:08:25;;;;;;;9.27;8.30;;;;;;;;;;5011866;28;20258;-64
2022/04/29 00:10:53;;;;;;;8.70;7.80;;;;;;;;;;5012947;28;20207;-63
2022/04/29 00:13:21;;;;;;;10.80;9.40;;;;;;;;;;5026201;28;20612;-65
2022/04/29 00:15:48;;;;;;;10.33;9.33;;;;;;;;;;5016025;28;20317;-63
2022/04/29 00:18:16;;;;;;;9.67;8.67;;;;;;;;;;5019499;28;20203;-62
2022/04/29 00:20:43;;;;;;;9.90;8.17;;;;;;;;;;5021282;28;20210;-64
2022/04/29 00:23:11;;;;;;;9.07;8.20;;;;;;;;;;5021004;28;20218;-62
2022/04/29 00:25:38;;;;;;;8.60;7.67;;;;;;;;;;5028567;28;20219;-63
2022/04/29 00:28:06;;;;;;;9.57;8.50;;;;;;;;;;5024935;28;20573;-64
2022/04/29 00:30:33;;;;;;;8.57;7.77;;;;;;;;;;5019881;28;20254;-62
2022/04/29 00:33:02;;;;;;;10.97;7.63;;;;;;;;;;5006768;28;20241;-64
2022/04/29 00:35:29;;;;;;;8.90;8.00;;;;;;;;;;5008373;28;20208;-62
2022/04/29 00:37:57;;;;;;;9.40;8.20;;;;;;;;;;5039650;28;20277;-64
2022/04/29 00:40:27;;;;;;;9.07;8.17;;;;;;;;;;5031723;28;20206;-63
2022/04/29 00:42:54;;;;;;;10.70;8.70;;;;;;;;;;5011188;28;20207;-64
2022/04/29 00:45:23;;;;;;;8.50;7.70;;;;;;;;;;5013722;28;20606;-64
2022/04/29 00:47:51;;;;;;;9.90;7.90;;;;;;;;;;5013192;28;20212;-64
2022/04/29 00:50:22;;;;;;;9.00;7.80;;;;;;;;;;5017028;28;20747;-64
2022/04/29 00:52:51;;;;;;;8.07;7.27;;;;;;;;;;5012216;28;20604;-62
2022/04/29 00:55:19;;;;;;;8.37;7.47;;;;;;;;;;5019562;28;20210;-61
2022/04/29 00:57:49;;;;;;;10.00;8.70;;;;;;;;;;5011658;28;20200;-63
2022/04/29 01:00:18;;;;;;;11.37;8.57;;;;;;;;;;5019054;28;20558;-63
2022/04/29 01:02:46;;;;;;;9.77;8.67;;;;;;;;;;5018278;28;20290;-64
2022/04/29 01:05:15;;;;;;;9.57;8.53;;;;;;;;;;5013363;28;20239;-63
2022/04/29 01:07:44;;;;;;;10.10;7.97;;;;;;;;;;5013229;28;20199;-65
2022/04/29 01:10:20;;;;;;;11.47;7.90;;;;;;;;;;5124217;27;21442;-64
2022/04/29 01:12:56;;;;;;;9.40;7.80;;;;;;;;;;5096640;28;20694;-64
2022/04/29 01:15:23;;;;;;;8.63;7.77;;;;;;;;;;5096377;28;20634;-63
2022/04/29 01:17:53;;;;;;;8.27;7.43;;;;;;;;;;5076555;28;20281;-64
2022/04/29 01:20:21;;;;;;;9.97;8.17;;;;;;;;;;5075096;28;20212;-62
2022/04/29 01:22:49;;;;;;;10.57;7.67;;;;;;;;;;5078029;28;20200;-62
2022/04/29 01:25:16;;;;;;;12.87;9.77;;;;;;;;;;5078433;28;20216;-63
2022/04/29 01:27:44;;;;;;;10.97;8.17;;;;;;;;;;5081560;28;20200;-64
2022/04/29 01:30:13;;;;;;;10.23;8.87;;;;;;;;;;5075969;28;20277;-63
2022/04/29 01:32:41;;;;;;;9.67;8.60;;;;;;;;;;5078744;28;20210;-64
2022/04/29 01:35:09;;;;;;;9.00;8.10;;;;;;;;;;5081374;28;20277;-62
2022/04/29 01:37:37;;;;;;;11.07;8.67;;;;;;;;;;5084288;28;20293;-64
2022/04/29 01:40:05;;;;;;;9.47;8.23;;;;;;;;;;5081089;28;20578;-64
2022/04/29 01:42:33;;;;;;;10.33;8.57;;;;;;;;;;5080389;28;20212;-64
2022/04/29 01:45:00;;;;;;;10.77;9.10;;;;;;;;;;5079864;28;20291;-64
2022/04/29 01:47:28;;;;;;;10.37;9.20;;;;;;;;;;5080402;28;20786;-63
2022/04/29 01:49:55;;;;;;;13.93;9.47;;;;;;;;;;5077094;28;20278;-63
2022/04/29 01:52:22;;;;;;;17.70;12.20;;;;;;;;;;5081674;28;20237;-62
2022/04/29 01:54:50;;;;;;;15.93;11.20;;;;;;;;;;5080621;28;20205;-63
2022/04/29 01:57:17;;;;;;;13.37;11.07;;;;;;;;;;5077894;28;20293;-65
2022/04/29 01:59:45;;;;;;;14.70;10.23;;;;;;;;;;5077142;28;20257;-65
2022/04/29 02:02:12;;;;;;;9.97;8.97;;;;;;;;;;5085132;28;20812;-64
2022/04/29 02:04:40;;;;;;;11.90;9.10;;;;;;;;;;5083885;28;20237;-64
2022/04/29 02:07:07;;;;;;;10.33;8.83;;;;;;;;;;5101581;28;20232;-63
2022/04/29 02:09:35;;;;;;;11.00;9.13;;;;;;;;;;5078530;28;20232;-62
2022/04/29 02:12:06;;;;;;;9.07;7.93;;;;;;;;;;5079463;28;20240;-64
2022/04/29 02:14:38;;;;;;;10.10;9.10;;;;;;;;;;5073211;28;20219;-64
2022/04/29 02:17:06;;;;;;;10.13;9.03;;;;;;;;;;5076849;28;20212;-65
2022/04/29 02:19:34;;;;;;;9.73;8.70;;;;;;;;;;5080865;28;20285;-63
2022/04/29 02:22:03;;;;;;;9.27;8.27;;;;;;;;;;5064771;28;20200;-64
2022/04/29 02:24:31;;;;;;;11.60;8.90;;;;;;;;;;5067744;28;20202;-63
2022/04/29 02:27:00;;;;;;;10.97;9.23;;;;;;;;;;5068478;28;20616;-63
2022/04/29 02:29:27;;;;;;;10.07;8.80;;;;;;;;;;5070465;28;20221;-64
2022/04/29 02:31:56;;;;;;;10.13;8.53;;;;;;;;;;5062388;28;20209;-63
2022/04/29 02:34:23;;;;;;;11.17;9.47;;;;;;;;;;5059368;28;20758;-63
2022/04/29 02:36:51;;;;;;;11.27;8.80;;;;;;;;;;5077676;28;20233;-63
2022/04/29 02:39:18;;;;;;;9.73;8.73;;;;;;;;;;5064184;28;20205;-63
2022/04/29 02:41:46;;;;;;;9.93;8.57;;;;;;;;;;5066662;28;20580;-62
2022/04/29 02:44:13;;;;;;;10.90;9.57;;;;;;;;;;5064564;28;20197;-63
2022/04/29 02:49:27;;;;;;;10.23;9.13;;;;;;;;;;5081793;28;20713;-63
2022/04/29 02:51:55;;;;;;;12.37;10.07;;;;;;;;;;5064573;28;20196;-65
2022/04/29 02:54:22;;;;;;;10.53;9.43;;;;;;;;;;5062701;28;20205;-64
2022/04/29 02:56:50;;;;;;;12.57;10.60;;;;;;;;;;5057325;28;20294;-64
2022/04/29 02:59:18;;;;;;;11.63;10.43;;;;;;;;;;5059996;28;21304;-63
2022/04/29 03:01:46;;;;;;;11.97;10.40;;;;;;;;;;5052145;28;20205;-62
2022/04/29 03:04:19;;;;;;;11.73;10.13;;;;;;;;;;5058109;28;20205;-64
2022/04/29 03:06:46;;;;;;;13.00;10.77;;;;;;;;;;5082106;28;20225;-64
2022/04/29 03:09:14;;;;;;;10.40;9.37;;;;;;;;;;5077341;28;20244;-63
2022/04/29 03:11:41;;;;;;;10.40;9.30;;;;;;;;;;5063515;28;20249;-61
2022/04/29 03:14:09;;;;;;;10.20;9.10;;;;;;;;;;5061695;28;20209;-64
2022/04/29 03:16:36;;;;;;;12.10;10.83;;;;;;;;;;5074195;28;20270;-64
2022/04/29 03:19:04;;;;;;;12.73;10.70;;;;;;;;;;5069046;28;20282;-65
2022/04/29 03:21:33;;;;;;;13.73;11.47;;;;;;;;;;5071819;28;20216;-62
2022/04/29 03:24:01;;;;;;;11.33;9.77;;;;;;;;;;5056998;28;20216;-62
2022/04/29 03:26:29;;;;;;;10.63;9.47;;;;;;;;;;5060742;28;20245;-65
2022/04/29 03:28:56;;;;;;;11.83;9.43;;;;;;;;;;5068225;28;20221;-64
2022/04/29 03:31:24;;;;;;;10.20;8.57;;;;;;;;;;5058375;28;20204;-64
2022/04/29 03:33:51;;;;;;;10.90;9.03;;;;;;;;;;5063088;28;21842;-63
2022/04/29 03:36:18;;;;;;;12.20;9.97;;;;;;;;;;5076776;28;20278;-63
2022/04/29 03:38:46;;;;;;;11.23;9.97;;;;;;;;;;5055129;28;20254;-64
2022/04/29 03:41:13;;;;;;;11.07;9.93;;;;;;;;;;5061204;28;20225;-63
2022/04/29 03:43:41;;;;;;;14.63;10.60;;;;;;;;;;5072837;28;20213;-62
2022/04/29 03:46:08;;;;;;;10.37;9.23;;;;;;;;;;5071537;28;20224;-65
2022/04/29 03:51:21;;;;;;;10.07;9.03;;;;;;;;;;5071284;28;20213;-62
2022/04/29 03:53:49;;;;;;;10.57;9.00;;;;;;;;;;5064735;28;20212;-62
2022/04/29 03:56:17;;;;;;;9.90;8.87;;;;;;;;;;5064110;28;20226;-63
2022/04/29 03:58:45;;;;;;;11.93;10.43;;;;;;;;;;5065747;28;20197;-64
2022/04/29 04:01:13;;;;;;;13.60;10.63;;;;;;;;;;5080337;28;20212;-62
2022/04/29 04:03:40;;;;;;;11.63;10.43;;;;;;;;;;5061517;28;20581;-63
2022/04/29 04:08:54;;;;;;;11.33;9.83;;;;;;;;;;5075845;28;20259;-64
2022/04/29 04:11:21;;;;;;;11.43;9.83;;;;;;;;;;5069885;28;20220;-64
2022/04/29 04:13:49;;;;;;;11.50;10.30;;;;;;;;;;5065570;28;20254;-62
2022/04/29 04:16:16;;;;;;;10.53;9.43;;;;;;;;;;5080747;28;20228;-62
2022/04/29 04:18:43;;;;;;;10.83;9.37;;;;;;;;;;5064405;28;20200;-62
2022/04/29 04:21:11;;;;;;;13.23;10.10;;;;;;;;;;5072757;28;20863;-63
2022/04/29 04:23:38;;;;;;;15.07;10.03;;;;;;;;;;5064891;28;20747;-64
2022/04/29 04:26:05;;;;;;;11.00;9.30;;;;;;;;;;5067191;28;20217;-62
2022/04/29 04:28:33;;;;;;;13.73;10.20;;;;;;;;;;5065938;28;20205;-63
2022/04/29 04:31:00;;;;;;;11.00;9.83;;;;;;;;;;5066681;28;20370;-64
2022/04/29 04:33:28;;;;;;;10.67;9.33;;;;;;;;;;5073364;28;20205;-64
2022/04/29 04:35:55;;;;;;;11.37;9.43;;;;;;;;;;5078234;28;20220;-64
2022/04/29 04:38:23;;;;;;;14.63;10.43;;;;;;;;;;5080803;28;20208;-64
2022/04/29 04:40:50;;;;;;;10.80;9.57;;;;;;;;;;5071435;28;20204;-64
2022/04/29 04:43:17;;;;;;;10.30;9.20;;;;;;;;;;5066688;28;20734;-63
2022/04/29 04:45:46;;;;;;;11.97;9.73;;;;;;;;;;5062393;28;20241;-64
2022/04/29 04:48:13;;;;;;;10.93;9.83;;;;;;;;;;5079486;28;20207;-63
2022/04/29 04:50:41;;;;;;;10.90;9.37;;;;;;;;;;5066552;28;20282;-64
2022/04/29 04:53:08;;;;;;;11.53;9.63;;;;;;;;;;5062938;28;20209;-63
2022/04/29 04:55:39;;;;;;;13.10;9.97;;;;;;;;;;5063437;28;20690;-64
2022/04/29 04:58:08;;;;;;;12.13;9.93;;;;;;;;;;5065446;28;20193;-63
2022/04/29 05:00:37;;;;;;;11.63;10.43;;;;;;;;;;5066369;28;20205;-64
2022/04/29 05:03:05;;;;;;;11.23;9.77;;;;;;;;;;5063528;28;20246;-64
2022/04/29 05:05:33;;;;;;;14.07;9.80;;;;;;;;;;5064265;28;20700;-64
2022/04/29 05:08:00;;;;;;;14.30;10.17;;;;;;;;;;5055826;28;20212;-62
2022/04/29 05:10:27;;;;;;;11.60;9.47;;;;;;;;;;5052353;28;20216;-61
2022/04/29 05:12:54;;;;;;;12.43;9.77;;;;;;;;;;5062538;28;20197;-64
2022/04/29 05:15:22;;;;;;;12.33;9.63;;;;;;;;;;5066687;28;20250;-65
2022/04/29 05:17:49;;;;;;;11.67;9.43;;;;;;;;;;5066930;28;20219;-64
2022/04/29 05:20:17;;;;;;;11.43;9.70;;;;;;;;;;5063378;28;20741;-64
2022/04/29 05:22:45;;;;;;;10.43;9.30;;;;;;;;;;5066355;28;20201;-63
2022/04/29 05:25:13;;;;;;;11.50;8.97;;;;;;;;;;5066286;28;20205;-64
2022/04/29 05:27:40;;;;;;;12.93;10.37;;;;;;;;;;5080644;28;20246;-64
2022/04/29 05:30:09;;;;;;;12.10;9.70;;;;;;;;;;5066140;28;20301;-63
2022/04/29 05:32:38;;;;;;;9.60;8.60;;;;;;;;;;5063108;28;20201;-64
2022/04/29 05:35:06;;;;;;;9.00;7.83;;;;;;;;;;5065977;28;20197;-64
2022/04/29 05:37:33;;;;;;;8.70;7.80;;;;;;;;;;5065641;28;20228;-64
2022/04/29 05:42:47;;;;;;;6.70;6.10;;;;;;;;;;5080180;28;20644;-64
2022/04/29 05:45:14;;;;;;;6.90;6.20;;;;;;;;;;5064222;28;20258;-64
2022/04/29 05:47:41;;;;;;;6.53;5.90;;;;;;;;;;5060228;28;20205;-64
2022/04/29 05:50:09;;;;;;;6.53;5.93;;;;;;;;;;5057187;28;20775;-64
2022/04/29 05:52:36;;;;;;;8.90;6.80;;;;;;;;;;5058537;28;20246;-64
2022/04/29 05:55:04;;;;;;;6.77;6.17;;;;;;;;;;5058581;28;20201;-64
2022/04/29 05:57:31;;;;;;;7.30;6.60;;;;;;;;;;5063888;28;20229;-64
2022/04/29 05:59:59;;;;;;;8.30;7.50;;;;;;;;;;5068128;28;20205;-63
2022/04/29 06:02:27;;;;;;;9.07;7.77;;;;;;;;;;5055866;28;20739;-64
2022/04/29 06:04:54;;;;;;;7.67;6.97;;;;;;;;;;5067323;28;20197;-63
2022/04/29 06:07:21;;;;;;;7.33;6.63;;;;;;;;;;5064757;28;20576;-63
2022/04/29 06:09:49;;;;;;;9.57;7.97;;;;;;;;;;5059878;28;20298;-64
2022/04/29 06:12:16;;;;;;;8.37;6.67;;;;;;;;;;5058710;28;20200;-64
2022/04/29 06:14:45;;;;;;;8.23;6.47;;;;;;;;;;5082509;28;20594;-63
2022/04/29 06:17:13;;;;;;;6.83;5.97;;;;;;;;;;5067711;28;20259;-64
2022/04/29 06:19:40;;;;;;;6.53;5.77;;;;;;;;;;5062108;28;20212;-64
2022/04/29 06:22:09;;;;;;;7.17;5.90;;;;;;;;;;5066483;28;20654;-63
2022/04/29 06:24:37;;;;;;;6.40;5.60;;;;;;;;;;5060863;28;20200;-64
2022/04/29 06:27:24;;;;;;;7.90;5.77;;;;;;;;;;5058731;28;20267;-63
2022/04/29 06:29:51;;;;;;;7.37;6.07;;;;;;;;;;5058857;28;20645;-64
2022/04/29 06:32:19;;;;;;;6.30;5.70;;;;;;;;;;5063753;28;20546;-64
2022/04/29 06:34:49;;;;;;;7.10;5.30;;;;;;;;;;5063862;28;20205;-65
2022/04/29 06:37:17;;;;;;;6.50;5.40;;;;;;;;;;5061689;28;20266;-63
2022/04/29 06:39:50;;;;;;;6.10;5.47;;;;;;;;;;5072997;28;20208;-62
2022/04/29 06:42:18;;;;;;;7.00;5.33;;;;;;;;;;5058334;28;20674;-64
2022/04/29 06:44:45;;;;;;;6.43;5.73;;;;;;;;;;5063835;28;20223;-63
2022/04/29 06:47:16;;;;;;;6.20;5.60;;;;;;;;;;5064149;28;20225;-64
2022/04/29 06:49:43;;;;;;;5.70;5.20;;;;;;;;;;5062967;28;20248;-63
2022/04/29 06:52:11;;;;;;;7.70;5.03;;;;;;;;;;5073017;28;20205;-63
2022/04/29 06:54:39;;;;;;;5.73;5.10;;;;;;;;;;5061590;28;20201;-63
2022/04/29 06:57:09;;;;;;;5.53;5.00;;;;;;;;;;5062094;28;21820;-63
2022/04/29 06:59:36;;;;;;;5.70;5.20;;;;;;;;;;5063415;28;20201;-63
2022/04/29 07:02:04;;;;;;;7.10;5.10;;;;;;;;;;5061642;28;20555;-63
2022/04/29 07:04:32;;;;;;;7.90;5.57;;;;;;;;;;5066421;28;20220;-63
2022/04/29 07:06:59;;;;;;;5.67;5.07;;;;;;;;;;5084928;28;20767;-64
2022/04/29 07:09:27;;;;;;;5.93;4.90;;;;;;;;;;5056770;28;20732;-64
2022/04/29 07:12:14;;;;;;;6.40;5.53;;;;;;;;;;5068071;28;20251;-63
2022/04/29 07:14:42;;;;;;;5.07;4.57;;;;;;;;;;5071140;28;20208;-63
2022/04/29 07:17:10;;;;;;;5.83;5.33;;;;;;;;;;5070936;28;20225;-64
2022/04/29 07:19:37;;;;;;;5.53;5.00;;;;;;;;;;5068902;28;20673;-64
2022/04/29 07:22:25;;;;;;;5.70;4.80;;;;;;;;;;5056314;28;20641;-63
2022/04/29 07:24:52;;;;;;;5.20;4.70;;;;;;;;;;5057628;28;20197;-63
2022/04/29 07:27:20;;;;;;;5.40;4.90;;;;;;;;;;5057416;28;20232;-63
2022/04/29 07:29:48;;;;;;;5.43;4.93;;;;;;;;;;5058101;28;20216;-63
2022/04/29 07:32:16;;;;;;;5.27;4.77;;;;;;;;;;5053731;28;20250;-64
2022/04/29 07:43:02;;;;;;;4.83;4.43;;;;;;;;;;5080625;28;20209;-62
2022/04/29 07:45:29;;;;;;;5.30;4.60;;;;;;;;;;5065494;28;20212;-63
2022/04/29 07:48:00;;;;;;;4.67;4.27;;;;;;;;;;5057505;28;20343;-63
2022/04/29 07:50:29;;;;;;;5.73;4.63;;;;;;;;;;5071350;28;20248;-63
2022/04/29 07:52:57;;;;;;;5.13;4.70;;;;;;;;;;5071579;28;20585;-63
2022/04/29 07:55:24;;;;;;;5.07;4.57;;;;;;;;;;5068384;28;20614;-63
2022/04/29 07:57:52;;;;;;;6.80;4.60;;;;;;;;;;5061796;28;20205;-64
2022/04/29 08:00:20;;;;;;;5.20;4.60;;;;;;;;;;5070444;28;20201;-62
2022/04/29 08:02:47;;;;;;;6.50;4.17;;;;;;;;;;5067752;28;20208;-64
2022/04/29 08:05:15;;;;;;;4.50;4.10;;;;;;;;;;5063067;28;22034;-63
2022/04/29 08:07:43;;;;;;;6.17;4.53;;;;;;;;;;5057505;28;20201;-63
2022/04/29 08:10:10;;;;;;;4.73;4.33;;;;;;;;;;5062925;28;20236;-64
2022/04/29 08:12:38;;;;;;;4.43;4.03;;;;;;;;;;5064991;28;20193;-63
2022/04/29 08:15:05;;;;;;;4.50;4.10;;;;;;;;;;5066927;28;20215;-64
2022/04/29 08:17:33;;;;;;;4.97;3.57;;;;;;;;;;5064552;28;20251;-64
2022/04/29 08:20:01;;;;;;;4.20;3.80;;;;;;;;;;5067241;28;20245;-65
2022/04/29 08:22:28;;;;;;;4.73;3.27;;;;;;;;;;5068874;28;20204;-63
2022/04/29 08:24:56;;;;;;;3.93;3.63;;;;;;;;;;5063286;28;20197;-64
2022/04/29 08:27:23;;;;;;;6.50;4.00;;;;;;;;;;5062799;28;20317;-65
2022/04/29 08:29:57;;;;;;;4.27;3.70;;;;;;;;;;5059690;28;20951;-63
2022/04/29 08:32:25;;;;;;;5.07;4.03;;;;;;;;;;5069667;28;20572;-64
2022/04/29 08:34:52;;;;;;;3.70;3.40;;;;;;;;;;5061561;28;20226;-64
2022/04/29 08:37:20;;;;;;;4.10;3.70;;;;;;;;;;5070894;28;20217;-63
2022/04/29 08:39:48;;;;;;;5.53;4.10;;;;;;;;;;5059197;28;20201;-64
2022/04/29 08:42:18;;;;;;;4.60;3.73;;;;;;;;;;5056217;28;20290;-62
2022/04/29 08:44:45;;;;;;;5.97;3.87;;;;;;;;;;5079259;28;20216;-61
2022/04/29 08:47:14;;;;;;;4.30;3.67;;;;;;;;;;5059901;28;20224;-63
2022/04/29 08:49:41;;;;;;;3.97;3.30;;;;;;;;;;5052527;28;20294;-63
2022/04/29 08:52:09;;;;;;;4.30;3.90;;;;;;;;;;5062682;28;20572;-64
2022/04/29 09:00:15;;;;;;;7.65;4.22;;;;;;;;;;5076173;28;20297;-63
2022/04/29 09:02:48;;;;;;;5.40;4.87;;;;;;;;;;5063327;28;20209;-61
2022/04/29 09:05:16;;;;;;;4.23;3.83;;;;;;;;;;5056453;28;20854;-63
2022/04/29 09:07:53;;;;;;;3.85;3.55;;;;;;;;;;5061408;28;20292;-63
2022/04/29 09:10:21;;;;;;;4.03;3.60;;;;;;;;;;5059689;28;20226;-63
2022/04/29 09:12:49;;;;;;;5.03;3.50;;;;;;;;;;5065241;28;20686;-63
2022/04/29 09:15:17;;;;;;;4.50;4.00;;;;;;;;;;5063942;28;20208;-64
2022/04/29 09:17:51;;;;;;;4.65;3.95;;;;;;;;;;5052184;28;20205;-64
2022/04/29 09:20:21;;;;;;;5.37;3.97;;;;;;;;;;5067478;28;20326;-63
2022/04/29 09:22:52;;;;;;;5.20;3.88;;;;;;;;;;5077765;28;20201;-64
2022/04/29 09:25:20;;;;;;;4.53;4.13;;;;;;;;;;5062828;28;20259;-64
2022/04/29 09:27:54;;;;;;;5.15;4.57;;;;;;;;;;5047916;28;20212;-63
2022/04/29 09:30:35;;;;;;;5.37;4.47;;;;;;;;;;5059132;28;20702;-63
2022/04/29 09:33:02;;;;;;;4.90;4.17;;;;;;;;;;5070056;28;20584;-63
2022/04/29 09:35:36;;;;;;;5.93;4.17;;;;;;;;;;5068475;28;20205;-63
2022/04/29 09:40:50;;;;;;;5.57;4.53;;;;;;;;;;5086206;28;20205;-63
2022/04/29 09:43:30;;;;;;;4.80;4.30;;;;;;;;;;5065707;28;20221;-64
2022/04/29 09:46:15;;;;;;;8.57;5.43;;;;;;;;;;5066093;28;20277;-63
2022/04/29 09:48:57;;;;;;;6.20;5.07;;;;;;;;;;5066330;28;20200;-64
2022/04/29 09:51:45;;;;;;;8.60;5.03;;;;;;;;;;5068267;28;20447;-64
2022/04/29 09:54:12;;;;;;;5.30;4.90;;;;;;;;;;5072308;28;20211;-64
2022/04/29 09:56:39;;;;;;;5.23;4.80;;;;;;;;;;5073240;28;20286;-62
2022/04/29 09:59:08;;;;;;;6.53;5.40;;;;;;;;;;5063614;28;20244;-63
2022/04/29 10:01:35;;;;;;;6.25;5.55;;;;;;;;;;5065271;28;20258;-63
2022/04/29 10:04:03;;;;;;;6.25;5.72;;;;;;;;;;5068217;28;20670;-64
2022/04/29 10:06:32;;;;;;;6.80;5.82;;;;;;;;;;5067521;28;20224;-64
2022/04/29 10:09:00;;;;;;;5.78;5.28;;;;;;;;;;5069715;28;20213;-64
2022/04/29 10:11:28;;;;;;;6.13;5.53;;;;;;;;;;5089920;28;20227;-64
2022/04/29 10:13:56;;;;;;;5.40;4.90;;;;;;;;;;5064341;28;20693;-64
2022/04/29 10:16:25;;;;;;;6.20;5.70;;;;;;;;;;5062370;28;20228;-63
2022/04/29 10:21:50;;;;;;;6.15;5.60;;;;;;;;;;5059987;28;20292;-63
2022/04/29 10:24:18;;;;;;;6.47;5.88;;;;;;;;;;5065989;28;20225;-63
2022/04/29 10:26:48;;;;;;;6.32;5.72;;;;;;;;;;5066719;28;20220;-63
2022/04/29 10:29:15;;;;;;;6.28;5.65;;;;;;;;;;5066074;28;20256;-63
2022/04/29 10:31:43;;;;;;;5.30;4.90;;;;;;;;;;5071481;28;20217;-62
2022/04/29 10:34:30;;;;;;;5.82;5.32;;;;;;;;;;5057039;28;20201;-63
2022/04/29 10:36:58;;;;;;;6.05;5.55;;;;;;;;;;5056281;28;20225;-63
2022/04/29 10:39:26;;;;;;;5.03;4.47;;;;;;;;;;5061853;28;20212;-63
2022/04/29 10:41:59;;;;;;;4.90;4.50;;;;;;;;;;5057644;28;20281;-64
2022/04/29 10:44:27;;;;;;;5.15;4.72;;;;;;;;;;5066034;28;20250;-63
2022/04/29 10:46:54;;;;;;;5.32;4.68;;;;;;;;;;5067260;28;20235;-63
2022/04/29 10:49:24;;;;;;;6.53;4.95;;;;;;;;;;5067147;28;20745;-63
2022/04/29 10:51:53;;;;;;;5.13;4.50;;;;;;;;;;5070458;28;20311;-63
2022/04/29 10:54:42;;;;;;;5.40;4.22;;;;;;;;;;5071122;28;20744;-63
2022/04/29 10:57:14;;;;;;;4.38;3.97;;;;;;;;;;5061807;28;20228;-61
2022/04/29 10:59:49;;;;;;;5.82;3.95;;;;;;;;;;5063813;28;20936;-63
2022/04/29 11:02:24;;;;;;;4.45;4.07;;;;;;;;;;5056590;28;20232;-63
2022/04/29 11:04:51;;;;;;;4.45;3.97;;;;;;;;;;5054474;28;20208;-63
2022/04/29 11:07:38;;;;;;;4.22;3.90;;;;;;;;;;5083267;28;20233;-63
2022/04/29 11:10:07;;;;;;;5.65;4.53;;;;;;;;;;5060336;28;20224;-63
2022/04/29 11:12:42;;;;;;;4.38;4.03;;;;;;;;;;5057093;28;21658;-64
2022/04/29 11:15:18;;;;;;;5.95;4.25;;;;;;;;;;5063232;28;20727;-63
2022/04/29 11:17:45;;;;;;;5.20;4.75;;;;;;;;;;5058246;28;20202;-63
2022/04/29 11:20:33;;;;;;;6.45;4.45;;;;;;;;;;5052107;28;20309;-64
2022/04/29 11:26:00;;;;;;;4.40;3.95;;;;;;;;;;5085802;28;20232;-64
2022/04/29 11:28:33;;;;;;;5.25;4.50;;;;;;;;;;5067202;28;20302;-64
2022/04/29 11:31:01;;;;;;;5.15;4.72;;;;;;;;;;5068422;28;20232;-61
2022/04/29 11:33:28;;;;;;;4.90;4.50;;;;;;;;;;5063811;28;20213;-64
2022/04/29 11:36:10;;;;;;;4.97;4.38;;;;;;;;;;5067542;28;20221;-64
2022/04/29 11:38:41;;;;;;;5.05;4.65;;;;;;;;;;5062159;28;20203;-64
2022/04/29 11:41:15;;;;;;;4.63;4.07;;;;;;;;;;5062138;28;20315;-63
2022/04/29 11:43:42;;;;;;;5.15;4.65;;;;;;;;;;5068693;28;20205;-64
2022/04/29 11:46:09;;;;;;;4.75;4.22;;;;;;;;;;5064668;28;20229;-64
2022/04/29 11:48:37;;;;;;;5.07;4.65;;;;;;;;;;5066901;28;20292;-64
2022/04/29 11:51:05;;;;;;;7.55;5.72;;;;;;;;;;5065869;28;20289;-64
2022/04/29 11:53:33;;;;;;;6.22;3.83;;;;;;;;;;5059666;28;20235;-63
2022/04/29 11:56:00;;;;;;;4.50;4.15;;;;;;;;;;5066840;28;20231;-63
2022/04/29 11:58:32;;;;;;;5.07;4.50;;;;;;;;;;5066419;28;20208;-63
2022/04/29 12:01:01;;;;;;;5.10;4.70;;;;;;;;;;5064315;28;20209;-63
2022/04/29 12:03:28;;;;;;;4.75;4.30;;;;;;;;;;5068705;28;20237;-64
2022/04/29 12:05:56;;;;;;;5.53;4.13;;;;;;;;;;5080336;28;20224;-64
2022/04/29 12:08:23;;;;;;;5.72;5.18;;;;;;;;;;5060419;28;20647;-63
2022/04/29 12:10:50;;;;;;;5.45;4.95;;;;;;;;;;5067625;28;20197;-63
2022/04/29 12:13:19;;;;;;;4.97;4.57;;;;;;;;;;5065559;28;20557;-64
2022/04/29 12:15:46;;;;;;;4.93;4.53;;;;;;;;;;5062497;28;21215;-63
2022/04/29 12:18:15;;;;;;;5.20;4.78;;;;;;;;;;5062917;28;20222;-62
2022/04/29 12:20:45;;;;;;;4.57;4.03;;;;;;;;;;5061890;28;20212;-63
2022/04/29 12:23:13;;;;;;;5.82;4.32;;;;;;;;;;5063591;28;20215;-64
2022/04/29 12:25:47;;;;;;;5.43;4.95;;;;;;;;;;5064533;28;20305;-63
2022/04/29 12:28:32;;;;;;;6.13;5.53;;;;;;;;;;5062072;28;20610;-63
2022/04/29 12:36:53;;;;;;;6.28;5.05;;;;;;;;;;5075647;28;20248;-64
2022/04/29 12:39:24;;;;;;;5.15;4.75;;;;;;;;;;5062345;28;20611;-65
2022/04/29 12:41:59;;;;;;;7.22;4.50;;;;;;;;;;5057553;28;20258;-63
2022/04/29 12:47:24;;;;;;;5.30;4.80;;;;;;;;;;5067431;28;20975;-64
2022/04/29 12:49:52;;;;;;;6.80;5.82;;;;;;;;;;5057031;28;20246;-63
2022/04/29 12:52:19;;;;;;;6.72;4.88;;;;;;;;;;5053965;28;20228;-64
2022/04/29 12:54:46;;;;;;;5.82;5.20;;;;;;;;;;5054018;28;22526;-64
2022/04/29 12:57:14;;;;;;;5.20;4.70;;;;;;;;;;5075444;28;20522;-64
2022/04/29 12:59:42;;;;;;;5.18;4.68;;;;;;;;;;5058008;28;20883;-63
2022/04/29 13:02:10;;;;;;;6.28;5.45;;;;;;;;;;5060216;28;20700;-63
2022/04/29 13:04:37;;;;;;;6.28;4.72;;;;;;;;;;5077595;28;20263;-63
2022/04/29 13:07:05;;;;;;;5.40;4.60;;;;;;;;;;5059530;28;20927;-62
2022/04/29 13:09:33;;;;;;;7.10;5.32;;;;;;;;;;5056257;28;20844;-62
2022/04/29 13:12:00;;;;;;;6.03;5.30;;;;;;;;;;5067660;28;20229;-63
2022/04/29 13:14:28;;;;;;;5.88;5.38;;;;;;;;;;5065429;28;20200;-65
2022/04/29 13:16:55;;;;;;;5.78;5.28;;;;;;;;;;5060552;28;20838;-64
2022/04/29 13:19:23;;;;;;;8.60;5.63;;;;;;;;;;5066150;28;20204;-63
2022/04/29 13:21:50;;;;;;;6.30;5.70;;;;;;;;;;5059987;28;20246;-64
2022/04/29 13:24:17;;;;;;;7.50;5.45;;;;;;;;;;5061817;28;20303;-64
2022/04/29 13:26:45;;;;;;;5.60;5.10;;;;;;;;;;5061997;28;20320;-63
2022/04/29 13:29:14;;;;;;;7.13;5.35;;;;;;;;;;5062233;28;20213;-63
2022/04/29 13:31:41;;;;;;;5.93;5.30;;;;;;;;;;5061302;28;20434;-63
2022/04/29 13:34:08;;;;;;;6.07;5.57;;;;;;;;;;5055955;28;20293;-63
2022/04/29 13:36:37;;;;;;;6.80;6.10;;;;;;;;;;5055894;28;20222;-64
2022/04/29 13:39:04;;;;;;;7.65;5.55;;;;;;;;;;5058647;28;20597;-64
2022/04/29 13:41:31;;;;;;;7.05;5.28;;;;;;;;;;5060170;28;20266;-63
2022/04/29 13:43:59;;;;;;;6.47;5.88;;;;;;;;;;5057862;28;20722;-62
2022/04/29 13:46:36;;;;;;;5.78;5.28;;;;;;;;;;5059685;28;20255;-63
2022/04/29 13:49:04;;;;;;;5.68;4.90;;;;;;;;;;5069030;28;20251;-64
2022/04/29 13:51:31;;;;;;;6.10;5.45;;;;;;;;;;5058111;28;20830;-64
2022/04/29 13:53:59;;;;;;;6.13;5.55;;;;;;;;;;5057076;28;20408;-64
2022/04/29 13:56:26;;;;;;;5.93;5.15;;;;;;;;;;5056918;28;20266;-62
2022/04/29 13:58:56;;;;;;;6.38;5.60;;;;;;;;;;5076692;28;20208;-64
2022/04/29 14:01:23;;;;;;;6.43;5.80;;;;;;;;;;5066026;28;20205;-64
2022/04/29 14:03:51;;;;;;;6.85;5.32;;;;;;;;;;5059440;28;20336;-64
2022/04/29 14:06:18;;;;;;;8.00;5.93;;;;;;;;;;5062889;28;21095;-64
2022/04/29 14:08:46;;;;;;;7.20;6.20;;;;;;;;;;5076156;28;20624;-64
2022/04/29 14:11:14;;;;;;;7.00;5.82;;;;;;;;;;5061731;28;20251;-63
2022/04/29 14:13:42;;;;;;;6.80;6.03;;;;;;;;;;5062465;28;20205;-62
2022/04/29 14:16:10;;;;;;;7.13;6.43;;;;;;;;;;5062641;28;20244;-63
2022/04/29 14:18:37;;;;;;;7.53;6.82;;;;;;;;;;5065297;28;20283;-62
2022/04/29 14:21:07;;;;;;;7.95;6.50;;;;;;;;;;5065516;28;20216;-63
2022/04/29 14:23:34;;;;;;;7.55;6.80;;;;;;;;;;5065618;28;20647;-63
2022/04/29 14:26:01;;;;;;;8.45;6.60;;;;;;;;;;5057987;28;23446;-64
2022/04/29 14:28:29;;;;;;;7.13;6.43;;;;;;;;;;5059337;28;20197;-63
2022/04/29 14:30:56;;;;;;;8.25;6.38;;;;;;;;;;5063669;28;20476;-64
2022/04/29 14:33:24;;;;;;;9.20;8.30;;;;;;;;;;5061838;28;20313;-63
2022/04/29 14:35:52;;;;;;;8.57;7.47;;;;;;;;;;5045666;28;20225;-63
2022/04/29 14:38:21;;;;;;;8.07;7.00;;;;;;;;;;5065216;28;20201;-63
2022/04/29 14:40:49;;;;;;;7.93;6.78;;;;;;;;;;5072237;28;20246;-65
2022/04/29 14:43:16;;;;;;;7.18;6.57;;;;;;;;;;5062260;28;20209;-62
2022/04/29 14:45:43;;;;;;;8.70;6.80;;;;;;;;;;5062637;28;20225;-64
2022/04/29 14:48:11;;;;;;;7.28;5.97;;;;;;;;;;5066557;28;20278;-64
2022/04/29 14:50:39;;;;;;;8.07;6.63;;;;;;;;;;5068035;28;20209;-64
2022/04/29 14:53:07;;;;;;;11.45;6.88;;;;;;;;;;5068564;28;20239;-64
2022/04/29 14:55:34;;;;;;;7.70;6.88;;;;;;;;;;5058444;28;20296;-65
2022/04/29 14:58:02;;;;;;;8.07;6.78;;;;;;;;;;5060016;28;20817;-65
2022/04/29 15:00:29;;;;;;;8.07;7.20;;;;;;;;;;5058708;28;20205;-66
2022/04/29 15:02:56;;;;;;;8.63;7.72;;;;;;;;;;5057203;28;20254;-65
2022/04/29 15:05:25;;;;;;;9.00;8.10;;;;;;;;;;5061514;28;20659;-64
2022/04/29 15:07:52;;;;;;;9.02;8.05;;;;;;;;;;5068132;28;20213;-66
2022/04/29 15:15:52;;;;;;;7.20;6.50;;;;;;;;;;5073419;28;20228;-65
2022/04/29 15:18:21;;;;;;;8.35;7.07;;;;;;;;;;5077995;28;20197;-65
2022/04/29 15:20:48;;;;;;;8.23;7.35;;;;;;;;;;5080561;28;20207;-64
2022/04/29 15:23:15;;;;;;;8.20;7.40;;;;;;;;;;5060437;28;21113;-66
2022/04/29 15:25:43;;;;;;;8.27;7.40;;;;;;;;;;5060682;28;20648;-65
2022/04/29 15:28:10;;;;;;;8.07;7.13;;;;;;;;;;5062311;28;20212;-66
2022/04/29 15:30:48;;;;;;;8.57;7.50;;;;;;;;;;5065442;28;20213;-65
2022/04/29 15:33:20;;;;;;;8.30;7.50;;;;;;;;;;5063428;28;20232;-64
2022/04/29 15:35:49;;;;;;;9.88;8.10;;;;;;;;;;5060786;28;20271;-64